createdAt,value
2017-08-29T00:00:30.191Z,16.80
2017-08-29T00:02:57.780Z,16.27
2017-08-29T00:05:25.378Z,15.63
2017-08-29T00:07:52.973Z,16.60
2017-08-29T00:10:20.566Z,14.63
2017-08-29T00:12:48.162Z,15.50
2017-08-29T00:15:15.737Z,17.03
2017-08-29T00:17:43.354Z,15.60
2017-08-29T00:20:10.942Z,16.27
2017-08-29T00:22:38.536Z,14.80
2017-08-29T00:25:06.203Z,15.63
2017-08-29T00:27:33.793Z,15.20
2017-08-29T00:30:01.385Z,15.03
2017-08-29T00:32:28.977Z,14.57
2017-08-29T00:34:56.596Z,15.20
2017-08-29T00:37:24.225Z,13.77
2017-08-29T00:39:51.934Z,13.63
2017-08-29T00:42:19.530Z,14.37
2017-08-29T00:44:47.116Z,16.00
2017-08-29T00:47:14.707Z,13.67
2017-08-29T00:49:42.304Z,13.63
2017-08-29T00:52:10.702Z,15.57
2017-08-29T00:54:38.288Z,15.30
2017-08-29T00:57:05.898Z,13.47
2017-08-29T00:59:33.473Z,13.20
2017-08-29T01:02:01.121Z,14.30
2017-08-29T01:04:28.704Z,13.23
2017-08-29T01:06:56.298Z,14.80
2017-08-29T01:09:23.875Z,14.23
2017-08-29T01:11:51.469Z,13.20
2017-08-29T01:14:19.053Z,13.30
2017-08-29T01:16:46.657Z,16.60
2017-08-29T01:19:14.250Z,12.90
2017-08-29T01:21:41.860Z,13.33
2017-08-29T01:24:09.498Z,13.33
2017-08-29T01:26:37.077Z,14.50
2017-08-29T01:29:05.462Z,13.63
2017-08-29T01:31:33.073Z,13.30
2017-08-29T01:34:00.936Z,14.07
2017-08-29T01:36:28.523Z,14.50
2017-08-29T01:38:56.082Z,13.93
2017-08-29T01:41:23.676Z,15.23
2017-08-29T01:43:51.285Z,12.10
2017-08-29T01:46:18.900Z,13.30
2017-08-29T01:48:46.488Z,13.50
2017-08-29T01:51:14.857Z,14.97
2017-08-29T01:53:43.279Z,13.40
2017-08-29T01:56:10.899Z,16.47
2017-08-29T01:58:38.574Z,15.63
2017-08-29T02:01:06.198Z,13.67
2017-08-29T02:03:33.774Z,14.47
2017-08-29T02:06:01.372Z,13.73
2017-08-29T02:08:29.009Z,13.50
2017-08-29T02:10:56.617Z,13.70
2017-08-29T02:13:24.206Z,13.27
2017-08-29T02:15:52.639Z,14.33
2017-08-29T02:18:20.299Z,13.60
2017-08-29T02:20:47.985Z,13.40
2017-08-29T02:23:15.929Z,13.03
2017-08-29T02:25:43.614Z,12.80
2017-08-29T02:28:11.252Z,14.20
2017-08-29T02:30:38.863Z,14.70
2017-08-29T02:33:07.392Z,13.67
2017-08-29T02:35:35.033Z,12.37
2017-08-29T02:38:02.620Z,15.67
2017-08-29T02:40:30.231Z,12.97
2017-08-29T02:42:57.842Z,12.90
2017-08-29T02:45:25.453Z,12.17
2017-08-29T02:47:53.054Z,14.97
2017-08-29T02:50:20.637Z,14.80
2017-08-29T02:52:48.216Z,13.30
2017-08-29T02:55:15.814Z,13.93
2017-08-29T02:57:43.427Z,13.07
2017-08-29T03:00:11.034Z,15.20
2017-08-29T03:02:38.754Z,13.43
2017-08-29T03:05:06.321Z,13.00
2017-08-29T03:07:33.953Z,12.53
2017-08-29T03:10:01.539Z,12.00
2017-08-29T03:12:29.902Z,13.07
2017-08-29T03:14:57.496Z,14.17
2017-08-29T03:17:25.418Z,14.10
2017-08-29T03:19:53.014Z,13.37
2017-08-29T03:22:20.608Z,13.07
2017-08-29T03:24:48.220Z,12.43
2017-08-29T03:27:15.818Z,14.10
2017-08-29T03:29:43.420Z,12.87
2017-08-29T03:32:11.008Z,12.80
2017-08-29T03:34:38.716Z,13.80
2017-08-29T03:37:06.362Z,12.60
2017-08-29T03:39:34.244Z,13.03
2017-08-29T03:42:01.858Z,12.60
2017-08-29T03:44:29.472Z,13.03
2017-08-29T03:46:57.078Z,13.13
2017-08-29T03:49:24.694Z,13.60
2017-08-29T03:51:52.299Z,12.93
2017-08-29T03:54:19.926Z,13.20
2017-08-29T03:56:47.579Z,14.27
2017-08-29T03:59:15.209Z,12.37
2017-08-29T04:01:43.233Z,15.83
2017-08-29T04:04:10.825Z,15.10
2017-08-29T04:06:38.414Z,13.97
2017-08-29T04:09:05.998Z,13.50
2017-08-29T04:11:33.579Z,13.03
2017-08-29T04:14:01.196Z,13.73
2017-08-29T04:16:28.791Z,13.30
2017-08-29T04:18:57.160Z,12.90
2017-08-29T04:21:24.745Z,12.57
2017-08-29T04:23:53.115Z,12.83
2017-08-29T04:26:20.718Z,15.93
2017-08-29T04:28:48.319Z,14.17
2017-08-29T04:31:15.911Z,14.57
2017-08-29T04:33:43.505Z,12.23
2017-08-29T04:36:11.102Z,13.53
2017-08-29T04:38:38.760Z,12.93
2017-08-29T04:41:06.343Z,13.00
2017-08-29T04:43:34.677Z,14.13
2017-08-29T04:46:02.279Z,12.50
2017-08-29T04:48:29.881Z,14.07
2017-08-29T04:50:57.772Z,12.20
2017-08-29T04:53:25.367Z,12.40
2017-08-29T04:55:52.953Z,12.60
2017-08-29T04:58:20.558Z,13.17
2017-08-29T05:00:48.169Z,13.17
2017-08-29T05:03:16.037Z,12.87
2017-08-29T05:05:43.637Z,13.13
2017-08-29T05:08:11.239Z,13.00
2017-08-29T05:10:38.837Z,15.67
2017-08-29T05:13:06.703Z,12.13
2017-08-29T05:15:34.292Z,12.23
2017-08-29T05:18:02.643Z,12.27
2017-08-29T05:20:30.236Z,13.67
2017-08-29T05:22:58.633Z,13.30
2017-08-29T05:25:26.236Z,13.90
2017-08-29T05:27:53.833Z,13.20
2017-08-29T05:30:21.415Z,13.73
2017-08-29T05:32:49.006Z,13.50
2017-08-29T05:35:16.614Z,13.50
2017-08-29T05:37:44.932Z,13.30
2017-08-29T05:40:12.694Z,13.33
2017-08-29T05:42:40.287Z,14.20
2017-08-29T05:45:07.888Z,13.13
2017-08-29T05:47:35.474Z,13.17
2017-08-29T05:50:03.063Z,13.47
2017-08-29T05:52:30.687Z,12.70
2017-08-29T05:54:58.273Z,14.70
2017-08-29T05:57:25.887Z,13.53
2017-08-29T05:59:53.495Z,14.13
2017-08-29T06:02:21.354Z,12.80
2017-08-29T06:04:49.005Z,12.67
2017-08-29T06:07:16.651Z,13.17
2017-08-29T06:09:44.313Z,14.00
2017-08-29T06:12:11.889Z,13.97
2017-08-29T06:14:39.484Z,13.47
2017-08-29T06:17:07.092Z,12.43
2017-08-29T06:19:35.084Z,12.20
2017-08-29T06:22:02.690Z,13.87
2017-08-29T06:24:31.061Z,13.70
2017-08-29T06:26:58.687Z,13.60
2017-08-29T06:29:26.360Z,12.33
2017-08-29T06:31:54.065Z,13.00
2017-08-29T06:34:21.633Z,14.83
2017-08-29T06:36:49.265Z,13.60
2017-08-29T06:39:17.626Z,14.90
2017-08-29T06:41:45.238Z,12.70
2017-08-29T06:44:12.829Z,13.77
2017-08-29T06:46:40.470Z,14.10
2017-08-29T06:49:08.138Z,17.90
2017-08-29T06:51:35.750Z,14.97
2017-08-29T06:54:03.456Z,13.33
2017-08-29T06:56:31.065Z,14.17
2017-08-29T06:58:58.678Z,15.13
2017-08-29T07:01:26.293Z,15.50
2017-08-29T07:03:54.238Z,13.70
2017-08-29T07:06:21.837Z,13.47
2017-08-29T07:08:49.458Z,14.10
2017-08-29T07:11:17.094Z,13.23
2017-08-29T07:13:44.703Z,11.50
2017-08-29T07:16:12.320Z,13.37
2017-08-29T07:18:39.899Z,12.20
2017-08-29T07:21:07.513Z,12.27
2017-08-29T07:23:35.092Z,12.87
2017-08-29T07:26:03.032Z,11.27
2017-08-29T07:28:30.691Z,11.80
2017-08-29T07:30:58.327Z,12.50
2017-08-29T07:33:26.028Z,11.33
2017-08-29T07:35:53.655Z,11.43
2017-08-29T07:38:21.261Z,9.93
2017-08-29T07:40:48.877Z,11.53
2017-08-29T07:43:17.200Z,10.90
2017-08-29T07:45:44.814Z,10.37
2017-08-29T07:48:12.434Z,10.47
2017-08-29T07:50:40.014Z,10.27
2017-08-29T07:53:07.946Z,10.70
2017-08-29T07:55:35.541Z,9.00
2017-08-29T07:58:03.883Z,9.47
2017-08-29T08:00:31.500Z,12.97
2017-08-29T08:02:59.083Z,11.50
2017-08-29T08:05:26.687Z,10.50
2017-08-29T08:07:54.271Z,9.73
2017-08-29T08:10:21.881Z,12.17
2017-08-29T08:12:49.454Z,11.47
2017-08-29T08:15:17.055Z,9.40
2017-08-29T08:17:44.927Z,9.20
2017-08-29T08:20:12.833Z,10.10
2017-08-29T08:22:40.433Z,9.57
2017-08-29T08:25:08.027Z,11.73
2017-08-29T08:27:35.616Z,8.50
2017-08-29T08:30:03.228Z,8.23
2017-08-29T08:32:30.828Z,9.40
2017-08-29T08:34:58.474Z,7.77
2017-08-29T08:37:26.090Z,8.47
2017-08-29T08:39:53.676Z,9.00
2017-08-29T08:42:21.281Z,10.50
2017-08-29T08:44:48.903Z,8.50
2017-08-29T08:47:16.790Z,8.60
2017-08-29T08:49:44.374Z,10.40
2017-08-29T08:52:11.995Z,8.40
2017-08-29T08:54:39.604Z,9.30
2017-08-29T08:57:07.228Z,8.33
2017-08-29T08:59:34.862Z,7.23
2017-08-29T09:02:02.428Z,7.97
2017-08-29T09:04:30.063Z,9.83
2017-08-29T09:06:57.655Z,7.23
2017-08-29T09:09:25.641Z,7.77
2017-08-29T09:11:53.219Z,7.50
2017-08-29T09:14:20.834Z,7.60
2017-08-29T09:16:48.432Z,7.57
2017-08-29T09:19:16.092Z,7.33
2017-08-29T09:21:43.690Z,7.30
2017-08-29T09:24:11.286Z,7.43
2017-08-29T09:26:38.872Z,9.50
2017-08-29T09:29:06.463Z,7.77
2017-08-29T09:31:34.114Z,10.07
2017-08-29T09:34:02.707Z,8.00
2017-08-29T09:36:30.361Z,6.83
2017-08-29T09:38:57.955Z,7.60
2017-08-29T09:41:25.557Z,7.30
2017-08-29T09:43:53.140Z,6.20
2017-08-29T09:46:20.738Z,6.17
2017-08-29T09:48:48.323Z,6.10
2017-08-29T09:51:16.002Z,7.30
2017-08-29T09:53:44.375Z,7.07
2017-08-29T09:56:11.958Z,7.30
2017-08-29T09:58:40.317Z,7.50
2017-08-29T10:01:07.903Z,6.87
2017-08-29T10:03:35.517Z,8.57
2017-08-29T10:06:03.099Z,8.90
2017-08-29T10:08:31.456Z,7.17
2017-08-29T10:10:59.039Z,7.63
2017-08-29T10:13:26.984Z,7.33
2017-08-29T10:15:54.547Z,8.23
2017-08-29T10:18:22.120Z,7.00
2017-08-29T10:20:50.484Z,6.17
2017-08-29T10:23:18.045Z,9.33
2017-08-29T10:25:45.622Z,7.90
2017-08-29T10:28:13.981Z,7.83
2017-08-29T10:30:41.624Z,6.87
2017-08-29T10:33:09.217Z,7.10
2017-08-29T10:35:36.846Z,6.70
2017-08-29T10:38:04.458Z,6.60
2017-08-29T10:40:32.372Z,7.00
2017-08-29T10:43:00.038Z,9.97
2017-08-29T10:45:27.620Z,5.30
2017-08-29T10:47:55.999Z,5.80
2017-08-29T10:50:23.579Z,6.60
2017-08-29T10:52:51.182Z,5.97
2017-08-29T10:55:18.806Z,5.83
2017-08-29T10:57:46.443Z,8.80
2017-08-29T11:00:14.087Z,5.60
2017-08-29T11:02:42.082Z,6.00
2017-08-29T11:05:09.670Z,6.03
2017-08-29T11:07:37.264Z,5.80
2017-08-29T11:10:05.681Z,5.43
2017-08-29T11:12:33.281Z,6.20
2017-08-29T11:15:00.916Z,6.07
2017-08-29T11:17:28.478Z,5.73
2017-08-29T11:19:56.078Z,6.00
2017-08-29T11:22:23.675Z,5.30
2017-08-29T11:24:51.613Z,6.10
2017-08-29T11:27:19.291Z,6.20
2017-08-29T11:29:46.924Z,6.03
2017-08-29T11:32:14.561Z,5.27
2017-08-29T11:34:42.150Z,5.40
2017-08-29T11:37:09.758Z,5.00
2017-08-29T11:39:37.340Z,6.07
2017-08-29T11:42:04.952Z,5.87
2017-08-29T11:44:32.543Z,6.63
2017-08-29T11:47:00.472Z,7.60
2017-08-29T11:49:28.074Z,5.30
2017-08-29T11:51:55.653Z,5.43
2017-08-29T11:54:23.251Z,5.17
2017-08-29T11:56:50.822Z,5.47
2017-08-29T11:59:18.415Z,5.10
2017-08-29T12:01:46.069Z,6.23
2017-08-29T12:04:13.702Z,5.60
2017-08-29T12:06:42.111Z,5.40
2017-08-29T12:09:09.710Z,5.70
2017-08-29T12:11:37.298Z,5.90
2017-08-29T12:14:05.229Z,6.17
2017-08-29T12:16:32.793Z,5.67
2017-08-29T12:19:00.401Z,6.07
2017-08-29T12:21:27.999Z,6.27
2017-08-29T12:23:55.590Z,5.13
2017-08-29T12:26:23.183Z,5.93
2017-08-29T12:28:50.854Z,6.20
2017-08-29T12:31:18.451Z,6.43
2017-08-29T12:33:46.031Z,6.03
2017-08-29T12:36:13.623Z,6.30
2017-08-29T12:38:41.207Z,5.80
2017-08-29T12:41:09.098Z,6.63
2017-08-29T12:43:36.681Z,6.80
2017-08-29T12:46:05.021Z,5.77
2017-08-29T12:48:32.653Z,6.20
2017-08-29T12:51:00.238Z,6.47
2017-08-29T12:53:27.818Z,6.20
2017-08-29T12:55:55.408Z,7.23
2017-08-29T12:58:23.017Z,6.33
2017-08-29T13:00:50.587Z,5.97
2017-08-29T13:03:18.214Z,6.30
2017-08-29T13:05:45.807Z,6.03
2017-08-29T13:08:13.398Z,5.97
2017-08-29T13:10:41.092Z,6.97
2017-08-29T13:13:08.659Z,6.30
2017-08-29T13:15:36.260Z,6.40
2017-08-29T13:18:04.594Z,6.93
2017-08-29T13:20:32.198Z,6.53
2017-08-29T13:23:00.570Z,5.43
2017-08-29T13:25:28.923Z,6.50
2017-08-29T13:27:56.496Z,6.40
2017-08-29T13:30:24.097Z,6.73
2017-08-29T13:32:51.683Z,6.60
2017-08-29T13:35:20.035Z,6.97
2017-08-29T13:37:47.614Z,5.50
2017-08-29T13:40:15.190Z,6.23
2017-08-29T13:42:42.898Z,7.63
2017-08-29T13:45:10.460Z,6.20
2017-08-29T13:47:38.063Z,7.27
2017-08-29T13:50:05.654Z,6.63
2017-08-29T13:52:33.245Z,6.77
2017-08-29T13:55:00.797Z,6.63
2017-08-29T13:57:28.372Z,6.80
2017-08-29T13:59:55.948Z,6.73
2017-08-29T14:02:23.534Z,7.17
2017-08-29T14:04:51.123Z,6.57
2017-08-29T14:07:19.496Z,6.47
2017-08-29T14:09:47.082Z,7.00
2017-08-29T14:12:14.663Z,6.37
2017-08-29T14:14:42.269Z,10.63
2017-08-29T14:17:09.854Z,10.73
2017-08-29T14:19:37.457Z,7.30
2017-08-29T14:22:05.020Z,7.33
2017-08-29T14:24:32.602Z,8.20
2017-08-29T14:27:00.179Z,6.83
2017-08-29T14:29:27.786Z,7.40
2017-08-29T14:31:55.395Z,7.00
2017-08-29T14:34:23.744Z,6.90
2017-08-29T14:36:51.347Z,6.83
2017-08-29T14:39:18.928Z,6.80
2017-08-29T14:41:46.591Z,7.10
2017-08-29T14:44:14.199Z,6.77
2017-08-29T14:46:54.058Z,7.50
2017-08-29T14:49:22.400Z,7.87
2017-08-29T14:51:49.989Z,6.43
2017-08-29T14:54:17.571Z,7.80
2017-08-29T14:56:45.195Z,7.07
2017-08-29T14:59:12.867Z,7.43
2017-08-29T15:01:40.524Z,8.73
2017-08-29T15:04:08.118Z,7.40
2017-08-29T15:06:35.693Z,7.67
2017-08-29T15:09:03.280Z,6.57
2017-08-29T15:11:30.840Z,7.60
2017-08-29T15:13:58.438Z,7.07
2017-08-29T15:16:26.011Z,6.80
2017-08-29T15:18:53.878Z,7.90
2017-08-29T15:21:21.458Z,6.70
2017-08-29T15:23:49.070Z,8.00
2017-08-29T15:26:16.687Z,7.27
2017-08-29T15:28:44.271Z,7.30
2017-08-29T15:31:11.890Z,8.40
2017-08-29T15:33:39.477Z,8.53
2017-08-29T15:36:07.331Z,9.07
2017-08-29T15:38:34.933Z,7.33
2017-08-29T15:41:02.536Z,7.77
2017-08-29T15:43:30.148Z,7.47
2017-08-29T15:45:58.521Z,8.20
2017-08-29T15:48:26.877Z,7.97
2017-08-29T15:50:54.478Z,8.13
2017-08-29T15:53:22.062Z,8.30
2017-08-29T15:55:49.653Z,9.33
2017-08-29T15:58:17.246Z,9.03
2017-08-29T16:00:44.839Z,9.07
2017-08-29T16:03:13.199Z,8.10
2017-08-29T16:05:40.821Z,7.57
2017-08-29T16:08:08.444Z,8.47
2017-08-29T16:10:36.002Z,8.50
2017-08-29T16:13:03.599Z,8.70
2017-08-29T16:15:31.173Z,11.23
2017-08-29T16:17:58.796Z,9.57
2017-08-29T16:20:26.399Z,8.53
2017-08-29T16:22:54.303Z,9.17
2017-08-29T16:25:21.969Z,8.50
2017-08-29T16:27:49.702Z,10.10
2017-08-29T16:30:17.371Z,8.87
2017-08-29T16:32:44.990Z,7.63
2017-08-29T16:35:12.763Z,7.13
2017-08-29T16:37:40.629Z,7.73
2017-08-29T16:40:09.000Z,7.60
2017-08-29T16:42:37.357Z,6.80
2017-08-29T16:45:05.048Z,7.50
2017-08-29T16:47:32.750Z,7.20
2017-08-29T16:50:00.820Z,7.43
2017-08-29T16:52:28.463Z,7.00
2017-08-29T16:54:57.256Z,8.00
2017-08-29T16:57:25.005Z,7.20
2017-08-29T16:59:52.771Z,6.53
2017-08-29T17:02:20.416Z,8.80
2017-08-29T17:04:48.013Z,8.87
2017-08-29T17:07:15.594Z,9.00
2017-08-29T17:09:43.288Z,9.50
2017-08-29T17:12:10.896Z,9.50
2017-08-29T17:14:38.499Z,8.90
2017-08-29T17:17:06.457Z,10.27
2017-08-29T17:19:34.081Z,8.87
2017-08-29T17:22:01.654Z,9.40
2017-08-29T17:24:29.316Z,8.47
2017-08-29T17:26:56.911Z,10.93
2017-08-29T17:29:24.506Z,9.83
2017-08-29T17:31:52.085Z,9.87
2017-08-29T17:34:19.716Z,8.47
2017-08-29T17:36:47.308Z,9.30
2017-08-29T17:39:15.067Z,7.83
2017-08-29T17:41:42.665Z,8.73
2017-08-29T17:44:10.238Z,8.00
2017-08-29T17:46:37.843Z,8.50
2017-08-29T17:49:05.422Z,9.30
2017-08-29T17:51:33.039Z,10.43
2017-08-29T17:54:00.645Z,8.63
2017-08-29T17:56:28.275Z,8.97
2017-08-29T17:58:55.914Z,10.40
2017-08-29T18:01:23.523Z,9.00
2017-08-29T18:03:51.135Z,8.30
2017-08-29T18:06:19.544Z,10.17
2017-08-29T18:08:47.137Z,9.30
2017-08-29T18:11:14.856Z,8.60
2017-08-29T18:13:42.562Z,8.70
2017-08-29T18:16:10.203Z,8.43
2017-08-29T18:18:37.784Z,10.93
2017-08-29T18:21:05.361Z,12.40
2017-08-29T18:23:33.737Z,14.90
2017-08-29T18:26:02.108Z,17.60
2017-08-29T18:28:29.696Z,10.37
2017-08-29T18:30:57.285Z,10.47
2017-08-29T18:33:25.670Z,10.90
2017-08-29T18:35:53.268Z,9.33
2017-08-29T18:38:21.747Z,10.00
2017-08-29T18:40:49.355Z,9.33
2017-08-29T18:43:17.654Z,11.23
2017-08-29T18:45:45.289Z,11.07
2017-08-29T18:48:12.943Z,9.17
2017-08-29T18:50:40.639Z,9.47
2017-08-29T18:53:08.243Z,10.10
2017-08-29T18:55:35.958Z,9.93
2017-08-29T18:58:03.561Z,9.57
2017-08-29T19:00:31.922Z,10.07
2017-08-29T19:03:00.299Z,8.90
2017-08-29T19:05:27.940Z,10.30
2017-08-29T19:07:55.525Z,9.30
2017-08-29T19:10:23.127Z,12.40
2017-08-29T19:12:50.722Z,9.83
2017-08-29T19:15:18.366Z,10.67
2017-08-29T19:17:45.981Z,11.33
2017-08-29T19:20:13.582Z,12.53
2017-08-29T19:22:41.349Z,15.77
2017-08-29T19:25:08.960Z,19.83
2017-08-29T19:27:36.556Z,18.53
2017-08-29T19:30:04.149Z,15.63
2017-08-29T19:32:31.778Z,14.40
2017-08-29T19:34:59.362Z,12.53
2017-08-29T19:37:27.327Z,13.00
2017-08-29T19:39:54.918Z,15.53
2017-08-29T19:42:22.523Z,13.83
2017-08-29T19:44:50.147Z,13.80
2017-08-29T19:47:17.728Z,12.80
2017-08-29T19:49:45.329Z,12.00
2017-08-29T19:52:12.907Z,12.87
2017-08-29T19:54:41.285Z,12.57
2017-08-29T19:57:09.648Z,10.93
2017-08-29T19:59:37.249Z,11.50
2017-08-29T20:02:04.807Z,10.93
2017-08-29T20:04:32.731Z,12.10
2017-08-29T20:07:00.351Z,11.03
2017-08-29T20:09:27.925Z,10.93
2017-08-29T20:11:55.518Z,12.20
2017-08-29T20:14:23.879Z,11.40
2017-08-29T20:16:51.531Z,12.63
2017-08-29T20:19:20.014Z,13.13
2017-08-29T20:21:47.619Z,12.03
2017-08-29T20:24:15.251Z,11.90
2017-08-29T20:26:42.973Z,12.80
2017-08-29T20:29:10.557Z,13.00
2017-08-29T20:31:38.204Z,13.10
2017-08-29T20:34:05.799Z,11.87
2017-08-29T20:36:33.751Z,11.70
2017-08-29T20:39:01.327Z,11.10
2017-08-29T20:41:29.696Z,11.43
2017-08-29T20:43:57.296Z,12.50
2017-08-29T20:46:24.936Z,11.90
2017-08-29T20:48:52.556Z,12.60
2017-08-29T20:51:20.167Z,12.30
2017-08-29T20:53:47.763Z,12.93
2017-08-29T20:56:15.380Z,12.20
2017-08-29T20:58:43.414Z,12.17
2017-08-29T21:01:11.019Z,10.70
2017-08-29T21:03:38.940Z,10.87
2017-08-29T21:06:06.525Z,11.17
2017-08-29T21:08:34.124Z,10.77
2017-08-29T21:11:01.734Z,11.10
2017-08-29T21:13:30.110Z,10.43
2017-08-29T21:15:57.725Z,10.67
2017-08-29T21:18:25.304Z,11.40
2017-08-29T21:20:52.908Z,10.90
2017-08-29T21:23:20.481Z,10.50
2017-08-29T21:25:48.084Z,11.27
2017-08-29T21:28:15.669Z,11.27
2017-08-29T21:30:43.269Z,10.70
2017-08-29T21:33:10.862Z,10.23
2017-08-29T21:35:38.753Z,11.33
2017-08-29T21:38:06.332Z,11.83
2017-08-29T21:40:33.932Z,10.50
2017-08-29T21:43:02.480Z,11.37
2017-08-29T21:45:30.041Z,10.83
2017-08-29T21:47:57.637Z,11.67
2017-08-29T21:50:25.221Z,11.90
2017-08-29T21:52:52.836Z,10.73
2017-08-29T21:55:20.452Z,10.97
2017-08-29T21:57:48.047Z,11.13
2017-08-29T22:00:15.656Z,11.23
2017-08-29T22:02:43.613Z,11.27
2017-08-29T22:05:11.286Z,10.50
2017-08-29T22:07:38.858Z,11.33
2017-08-29T22:10:06.467Z,11.53
2017-08-29T22:12:34.122Z,10.90
2017-08-29T22:15:01.725Z,11.00
2017-08-29T22:17:29.323Z,10.80
2017-08-29T22:19:56.945Z,11.17
2017-08-29T22:22:24.569Z,12.00
2017-08-29T22:24:52.199Z,11.30
2017-08-29T22:27:19.798Z,10.50
2017-08-29T22:29:47.680Z,11.43
2017-08-29T22:32:15.271Z,11.50
2017-08-29T22:34:43.658Z,11.47
2017-08-29T22:37:11.303Z,11.47
2017-08-29T22:39:38.906Z,12.13
2017-08-29T22:42:06.519Z,11.50
2017-08-29T22:44:34.122Z,12.07
2017-08-29T22:47:02.635Z,12.10
2017-08-29T22:49:30.235Z,11.03
2017-08-29T22:51:57.850Z,12.27
2017-08-29T22:54:25.445Z,12.80
2017-08-29T22:56:53.047Z,11.33
2017-08-29T22:59:20.639Z,11.87
2017-08-29T23:01:48.232Z,12.80
2017-08-29T23:04:15.836Z,11.97
2017-08-29T23:06:43.527Z,12.53
2017-08-29T23:09:11.113Z,13.27
2017-08-29T23:11:39.053Z,12.30
2017-08-29T23:14:06.647Z,10.80
2017-08-29T23:16:34.224Z,12.23
2017-08-29T23:19:01.828Z,12.20
2017-08-29T23:21:29.454Z,12.27
2017-08-29T23:23:57.085Z,13.23
2017-08-29T23:26:24.674Z,13.03
2017-08-29T23:28:52.260Z,12.47
2017-08-29T23:31:19.849Z,12.70
2017-08-29T23:33:47.561Z,16.73
2017-08-29T23:36:15.202Z,12.87
2017-08-29T23:38:42.880Z,12.67
2017-08-29T23:41:10.523Z,11.53
2017-08-29T23:43:38.122Z,13.27
2017-08-29T23:46:05.738Z,13.23
2017-08-29T23:48:33.329Z,14.63
2017-08-29T23:51:00.923Z,13.10
2017-08-29T23:53:28.503Z,16.60
2017-08-29T23:55:56.104Z,13.00
2017-08-29T23:58:23.754Z,14.13
